Time;durP1;ratioP1;P1;durP2;ratioP2;P2;SDS_P1;SDS_P2;PMS_P1;PMS_P2;Temp;Humidity;BMP_temperature;BMP_pressure;BME280_temperature;BME280_humidity;BME280_pressure;Samples;Min_cycle;Max_cycle;Signal;HPM_P1;HPM_P2
2024/01/31 00:02:02;;;;;;;19.87;14.37;;;;;;;10.01;84.39;99744.06;4237858;27;20620;-82
2024/01/31 00:04:05;;;;;;;16.50;13.20;;;;;;;10.04;84.95;99736.13;4257050;27;20624;-82
2024/01/31 00:06:10;;;;;;;17.30;13.70;;;;;;;10.07;84.71;99738.63;4252861;27;20655;-82
2024/01/31 00:08:13;;;;;;;16.93;13.63;;;;;;;10.09;84.66;99743.75;4217044;27;20626;-82
2024/01/31 00:10:16;;;;;;;18.10;13.20;;;;;;;10.09;85.29;99741.16;4254146;27;20704;-82
2024/01/31 00:12:19;;;;;;;16.97;13.97;;;;;;;10.02;85.21;99737.94;4259104;27;20600;-82
2024/01/31 00:14:22;;;;;;;19.37;14.83;;;;;;;9.99;85.29;99732.00;4236979;27;20629;-82
2024/01/31 00:16:26;;;;;;;17.97;14.23;;;;;;;9.97;86.17;99742.47;4222958;27;20626;-82
2024/01/31 00:18:29;;;;;;;22.40;16.80;;;;;;;9.90;86.87;99735.75;4252927;27;20647;-82
2024/01/31 00:20:32;;;;;;;22.07;17.30;;;;;;;9.84;86.91;99736.94;4256525;27;21199;-82
2024/01/31 00:22:35;;;;;;;23.43;17.00;;;;;;;9.82;87.37;99743.94;4212096;27;20650;-82
2024/01/31 00:24:39;;;;;;;19.57;15.60;;;;;;;9.80;88.32;99730.97;4235012;27;20614;-82
2024/01/31 00:26:42;;;;;;;17.47;14.70;;;;;;;9.82;87.96;99730.91;4233463;27;20618;-82
2024/01/31 00:28:45;;;;;;;18.10;15.50;;;;;;;9.84;87.74;99736.94;4227005;27;20626;-83
2024/01/31 00:30:47;;;;;;;19.10;15.30;;;;;;;9.86;87.57;99738.56;4246372;27;20693;-83
2024/01/31 00:32:50;;;;;;;15.73;13.57;;;;;;;9.88;86.99;99735.00;4240076;27;20612;-82
2024/01/31 00:34:53;;;;;;;18.30;14.20;;;;;;;9.87;87.10;99737.66;4236590;27;20630;-82
2024/01/31 00:36:56;;;;;;;17.77;14.63;;;;;;;9.84;87.03;99742.16;4250795;27;20624;-81
2024/01/31 00:39:00;;;;;;;19.33;14.90;;;;;;;9.82;87.14;99738.72;4216121;27;20626;-82
2024/01/31 00:41:06;;;;;;;19.43;14.73;;;;;;;9.83;87.29;99741.28;4237692;27;20632;-82
2024/01/31 00:43:10;;;;;;;20.37;15.37;;;;;;;9.83;87.31;99741.28;4235817;27;20741;-82
2024/01/31 00:45:14;;;;;;;22.25;16.67;;;;;;;9.82;87.87;99728.31;4221511;27;20667;-82
2024/01/31 00:47:16;;;;;;;27.43;19.27;;;;;;;9.82;87.98;99742.22;4250911;27;20199;-82
2024/01/31 00:49:19;;;;;;;31.50;19.97;;;;;;;9.81;89.21;99742.25;4229418;27;20650;-82
2024/01/31 00:51:28;;;;;;;32.83;19.93;;;;;;;9.80;88.54;99737.94;4253343;27;20722;-82
2024/01/31 00:53:31;;;;;;;32.13;20.90;;;;;;;9.78;89.11;99734.56;4221504;27;20625;-82
2024/01/31 00:55:36;;;;;;;31.93;20.63;;;;;;;9.76;89.19;99739.84;4235061;27;20646;-81
2024/01/31 00:57:40;;;;;;;29.60;18.83;;;;;;;9.77;89.22;99741.50;4230866;27;20673;-81
2024/01/31 00:59:44;;;;;;;24.17;17.90;;;;;;;9.76;88.94;99739.84;4230597;27;21107;-81
2024/01/31 01:01:47;;;;;;;23.13;16.93;;;;;;;9.76;88.42;99738.97;4229693;27;20730;-81
2024/01/31 01:03:50;;;;;;;22.10;17.00;;;;;;;9.77;88.83;99740.69;4254777;27;20624;-78
2024/01/31 01:05:53;;;;;;;19.90;15.20;;;;;;;9.75;88.41;99745.94;4239235;27;20652;-79
2024/01/31 01:07:56;;;;;;;20.57;14.77;;;;;;;9.75;88.07;99737.28;4255984;27;20645;-78
2024/01/31 01:09:59;;;;;;;20.00;15.20;;;;;;;9.75;88.02;99738.13;4236113;27;20709;-77
2024/01/31 01:12:05;;;;;;;21.23;15.60;;;;;;;9.76;88.21;99744.19;4226396;27;21040;-78
2024/01/31 01:14:08;;;;;;;19.87;14.37;;;;;;;9.75;87.55;99737.28;4242024;27;20635;-78
2024/01/31 01:16:11;;;;;;;21.20;15.37;;;;;;;9.75;88.10;99743.34;4231653;27;20712;-78
2024/01/31 01:18:13;;;;;;;21.38;15.80;;;;;;;9.73;88.26;99729.53;4218271;28;21271;-78
2024/01/31 01:20:16;;;;;;;17.17;14.37;;;;;;;9.71;88.50;99736.56;4250128;27;20214;-79
2024/01/31 01:22:19;;;;;;;19.37;14.17;;;;;;;9.71;87.99;99740.91;4250937;27;20661;-79
2024/01/31 01:24:22;;;;;;;20.27;15.33;;;;;;;9.72;88.00;99734.81;4235012;27;20674;-79
2024/01/31 01:26:25;;;;;;;22.03;16.00;;;;;;;9.71;88.48;99740.91;4250801;27;21104;-78
2024/01/31 01:28:30;;;;;;;20.57;14.90;;;;;;;9.70;88.50;99742.69;4254896;27;20609;-78
2024/01/31 01:30:33;;;;;;;19.57;14.63;;;;;;;9.70;89.23;99739.25;4237442;27;20645;-77
2024/01/31 01:32:36;;;;;;;23.23;16.05;;;;;;;9.68;88.48;99741.03;4250215;27;20631;-78
2024/01/31 01:34:41;;;;;;;18.70;14.60;;;;;;;9.68;89.10;99738.44;4235307;27;20212;-78
2024/01/31 01:36:46;;;;;;;18.90;15.90;;;;;;;9.67;88.52;99734.16;4234804;27;20613;-79
2024/01/31 01:38:49;;;;;;;17.87;14.40;;;;;;;9.66;88.68;99735.03;4235521;27;21524;-77
2024/01/31 01:40:51;;;;;;;18.60;13.97;;;;;;;9.64;88.57;99731.66;4248964;27;21011;-80
2024/01/31 01:42:55;;;;;;;21.10;15.55;;;;;;;9.64;88.50;99734.25;4251775;27;21011;-78
2024/01/31 01:44:59;;;;;;;20.30;15.17;;;;;;;9.64;88.48;99729.06;4231722;27;20272;-77
2024/01/31 01:47:02;;;;;;;19.50;15.70;;;;;;;9.63;88.86;99736.00;4252491;27;21198;-78
2024/01/31 01:49:06;;;;;;;17.40;14.73;;;;;;;9.63;88.69;99742.97;4235355;27;20657;-78
2024/01/31 01:51:09;;;;;;;17.13;14.30;;;;;;;9.62;88.53;99733.44;4251118;27;20637;-79
2024/01/31 01:53:11;;;;;;;21.73;16.40;;;;;;;9.62;88.67;99728.25;4250474;27;20616;-78
2024/01/31 01:55:15;;;;;;;24.43;15.67;;;;;;;9.61;89.37;99729.16;4220306;28;20750;-77
2024/01/31 01:57:18;;;;;;;22.00;16.10;;;;;;;9.61;88.95;99729.16;4251394;27;20632;-79
2024/01/31 01:59:21;;;;;;;22.65;16.10;;;;;;;9.60;89.21;99719.66;4254163;27;20608;-79
2024/01/31 02:01:27;;;;;;;20.97;15.80;;;;;;;9.58;89.47;99724.91;4246510;27;20684;-78
2024/01/31 02:06:50;;;;;;;19.83;15.20;;;;;;;9.55;89.59;99721.59;2246599;26;20673;-84
2024/01/31 02:08:53;;;;;;;21.53;16.70;;;;;;;9.53;89.86;99713.84;4072827;29;20629;-83
2024/01/31 02:10:57;;;;;;;21.40;16.20;;;;;;;9.53;89.61;99715.56;4076834;29;20630;-84
2024/01/31 02:12:59;;;;;;;24.97;15.50;;;;;;;9.51;89.50;99713.03;4075704;29;20633;-84
2024/01/31 02:15:02;;;;;;;20.30;16.10;;;;;;;9.52;89.84;99706.06;4077543;29;20672;-86
2024/01/31 02:17:07;;;;;;;20.98;15.30;;;;;;;9.51;89.03;99701.75;4073225;29;20618;-84
2024/01/31 02:19:10;;;;;;;19.20;15.07;;;;;;;9.52;89.69;99706.06;4070493;29;20210;-84
2024/01/31 02:21:15;;;;;;;23.80;15.97;;;;;;;9.53;89.47;99702.53;4071744;29;20910;-85
2024/01/31 02:23:20;;;;;;;20.17;15.80;;;;;;;9.51;89.17;99701.75;4074696;29;20628;-85
2024/01/31 02:25:24;;;;;;;22.98;15.93;;;;;;;9.46;89.37;99704.53;4087405;28;20658;-84
2024/01/31 02:27:27;;;;;;;22.70;16.77;;;;;;;9.48;89.22;99702.72;4059848;29;20234;-84
2024/01/31 02:29:29;;;;;;;21.08;15.77;;;;;;;9.49;90.09;99703.59;4058224;29;20695;-85
2024/01/31 02:31:32;;;;;;;25.95;17.48;;;;;;;9.47;89.44;99701.03;4075417;29;20717;-85
2024/01/31 02:33:36;;;;;;;20.70;16.57;;;;;;;9.47;89.33;99702.78;4076314;29;20249;-85
2024/01/31 02:35:39;;;;;;;20.27;15.80;;;;;;;9.48;89.88;99696.69;4081147;29;21305;-84
2024/01/31 02:37:42;;;;;;;21.47;16.20;;;;;;;9.47;90.06;99700.19;4078461;29;20634;-84
2024/01/31 02:39:47;;;;;;;24.80;16.90;;;;;;;9.46;89.97;99693.28;4076639;29;20646;-85
2024/01/31 02:41:51;;;;;;;24.08;16.08;;;;;;;9.45;89.94;99696.78;4063581;29;20619;-84
2024/01/31 02:43:55;;;;;;;22.57;16.20;;;;;;;9.46;90.25;99703.72;4076069;28;20207;-84
2024/01/31 02:45:57;;;;;;;22.13;15.70;;;;;;;9.46;89.80;99698.50;4075089;29;21209;-85
2024/01/31 02:48:01;;;;;;;21.37;16.47;;;;;;;9.46;89.60;99695.91;4091837;28;20229;-85
2024/01/31 02:50:04;;;;;;;23.63;16.50;;;;;;;9.45;90.27;99707.22;4076560;29;20665;-84
2024/01/31 02:52:07;;;;;;;20.87;15.83;;;;;;;9.46;89.33;99701.09;4076454;29;20676;-85
2024/01/31 02:54:09;;;;;;;22.07;16.40;;;;;;;9.47;90.34;99702.78;4090687;28;20639;-84
2024/01/31 02:56:14;;;;;;;22.40;16.77;;;;;;;9.47;90.03;99700.19;4093929;28;20628;-85
2024/01/31 02:58:17;;;;;;;23.70;16.37;;;;;;;9.46;90.08;99699.34;4089262;28;20645;-84
2024/01/31 03:00:20;;;;;;;22.70;16.17;;;;;;;9.46;90.60;99701.09;4076570;29;20641;-84
2024/01/31 03:02:23;;;;;;;26.10;17.93;;;;;;;9.46;90.05;99696.72;4077933;29;20286;-85
2024/01/31 03:04:27;;;;;;;23.83;16.93;;;;;;;9.46;89.80;99699.34;4078535;29;21112;-85
2024/01/31 03:06:30;;;;;;;23.30;18.23;;;;;;;9.47;89.84;99701.03;4076147;29;20682;-85
2024/01/31 03:08:33;;;;;;;26.53;17.20;;;;;;;9.44;90.10;99698.56;4091218;28;20636;-84
2024/01/31 03:10:36;;;;;;;24.03;18.13;;;;;;;9.43;89.99;99694.25;4077590;29;20634;-84
2024/01/31 03:12:41;;;;;;;23.57;17.23;;;;;;;9.44;89.97;99702.91;4072057;29;20673;-85
2024/01/31 03:14:44;;;;;;;24.10;16.90;;;;;;;9.42;89.99;99702.94;4060571;29;21057;-81
2024/01/31 03:16:47;;;;;;;22.43;17.30;;;;;;;9.41;89.44;99696.06;4078184;29;21257;-81
2024/01/31 03:18:50;;;;;;;21.80;17.27;;;;;;;9.40;89.82;99690.91;4088363;28;20651;-81
2024/01/31 03:20:55;;;;;;;24.92;17.40;;;;;;;9.38;90.06;99690.09;4058744;29;20740;-81
2024/01/31 03:22:58;;;;;;;21.47;16.57;;;;;;;9.38;90.22;99686.66;4073758;29;20896;-80
2024/01/31 03:25:02;;;;;;;23.17;17.23;;;;;;;9.38;90.51;99687.50;4076393;29;20673;-81
2024/01/31 03:27:06;;;;;;;20.10;15.52;;;;;;;9.38;90.62;99685.78;4077886;29;20773;-82
2024/01/31 03:29:11;;;;;;;20.73;16.37;;;;;;;9.34;90.43;99678.13;4066313;29;20321;-81
2024/01/31 03:31:15;;;;;;;22.75;16.70;;;;;;;9.35;90.39;99684.19;4076740;29;20622;-81
2024/01/31 03:33:18;;;;;;;26.30;16.70;;;;;;;9.31;90.20;99678.25;4078492;29;20203;-82
2024/01/31 03:35:22;;;;;;;22.27;17.10;;;;;;;9.32;90.20;99677.34;4059231;29;20651;-81
2024/01/31 03:37:24;;;;;;;22.50;15.60;;;;;;;9.34;90.42;99677.28;4080449;29;20661;-81
2024/01/31 03:39:27;;;;;;;25.83;16.60;;;;;;;9.33;91.21;99681.63;4078743;29;20665;-81
2024/01/31 03:41:30;;;;;;;21.30;16.10;;;;;;;9.32;90.28;99679.09;4080987;29;20252;-80
2024/01/31 03:43:33;;;;;;;22.93;16.30;;;;;;;9.29;90.62;99677.47;4064169;29;20635;-81
2024/01/31 03:45:37;;;;;;;19.67;15.63;;;;;;;9.28;90.67;99680.13;4073139;29;20686;-80
2024/01/31 03:47:40;;;;;;;21.35;16.38;;;;;;;9.26;90.04;99674.97;4080327;29;20764;-81
2024/01/31 03:49:45;;;;;;;21.93;16.23;;;;;;;9.25;90.67;99686.28;4061297;29;20221;-81
2024/01/31 03:51:49;;;;;;;23.85;17.60;;;;;;;9.26;90.18;99685.41;4071485;29;20635;-81
2024/01/31 03:53:52;;;;;;;22.90;16.03;;;;;;;9.27;90.92;99686.22;4072181;29;20217;-81
2024/01/31 03:55:55;;;;;;;26.03;16.53;;;;;;;9.26;91.52;99685.41;4073428;29;20626;-81
2024/01/31 03:57:59;;;;;;;25.20;16.77;;;;;;;9.25;91.42;99681.09;4075770;29;20624;-81
2024/01/31 04:00:09;;;;;;;22.03;16.90;;;;;;;9.26;91.25;99677.59;4071246;29;20984;-81
2024/01/31 04:02:14;;;;;;;24.27;17.60;;;;;;;9.26;92.12;99680.19;4061765;29;20718;-81
2024/01/31 04:04:20;;;;;;;23.73;16.33;;;;;;;9.23;91.72;99675.09;4057517;29;20634;-81
2024/01/31 04:06:23;;;;;;;24.35;16.13;;;;;;;9.25;91.51;99683.69;4060680;29;20658;-81
2024/01/31 04:08:26;;;;;;;24.58;17.08;;;;;;;9.27;91.33;99686.22;4090232;28;20456;-81
2024/01/31 04:10:29;;;;;;;21.55;15.85;;;;;;;9.27;92.13;99678.41;4060269;29;20213;-81
2024/01/31 04:12:31;;;;;;;23.83;16.38;;;;;;;9.27;92.07;99687.06;4063540;29;20217;-80
2024/01/31 04:14:35;;;;;;;21.90;16.02;;;;;;;9.28;90.91;99693.97;4077842;29;20213;-81
2024/01/31 04:16:38;;;;;;;21.13;16.70;;;;;;;9.30;91.58;99691.31;4061708;29;20217;-81
2024/01/31 04:18:42;;;;;;;19.83;15.53;;;;;;;9.31;91.68;99698.25;4075783;29;20210;-81
2024/01/31 04:20:46;;;;;;;22.35;16.77;;;;;;;9.30;91.03;99701.75;4076303;29;20644;-81
2024/01/31 04:22:50;;;;;;;24.38;17.00;;;;;;;9.30;91.39;99693.94;4064988;29;20328;-81
2024/01/31 04:24:53;;;;;;;23.30;16.97;;;;;;;9.32;90.98;99692.09;4072827;29;20236;-85
2024/01/31 04:26:55;;;;;;;19.10;15.70;;;;;;;9.32;91.54;99689.50;4054775;29;20628;-85
2024/01/31 04:29:04;;;;;;;23.45;16.55;;;;;;;9.35;91.36;99694.59;4070264;29;20637;-85
2024/01/31 04:31:12;;;;;;;21.70;16.10;;;;;;;9.34;91.34;99704.16;4094241;28;20793;-85
2024/01/31 04:33:16;;;;;;;22.67;16.75;;;;;;;9.35;91.95;99695.47;4059761;29;21278;-84
2024/01/31 04:35:20;;;;;;;22.00;15.77;;;;;;;9.37;91.46;99704.06;4063381;29;20218;-84
2024/01/31 04:37:23;;;;;;;25.30;16.00;;;;;;;9.40;91.76;99701.34;4064258;29;21071;-84
2024/01/31 04:39:26;;;;;;;21.10;16.02;;;;;;;9.42;91.36;99702.13;4061252;29;20697;-84
2024/01/31 04:41:29;;;;;;;18.50;16.20;;;;;;;9.41;90.90;99705.63;4075947;29;20293;-85
2024/01/31 04:43:32;;;;;;;23.10;16.10;;;;;;;9.42;90.68;99708.16;4073465;29;21079;-85
2024/01/31 04:45:35;;;;;;;22.63;15.60;;;;;;;9.43;90.93;99711.63;4075975;29;21019;-85
2024/01/31 04:47:39;;;;;;;21.87;15.70;;;;;;;9.46;90.92;99714.13;4078066;29;20662;-85
2024/01/31 04:49:42;;;;;;;23.98;15.93;;;;;;;9.46;91.03;99720.16;4074997;29;20630;-85
2024/01/31 04:51:46;;;;;;;22.02;16.55;;;;;;;9.47;91.18;99726.22;4060316;29;20238;-84
2024/01/31 04:53:49;;;;;;;23.27;16.60;;;;;;;9.47;90.27;99729.69;4062415;29;20234;-84
2024/01/31 04:55:52;;;;;;;19.10;15.67;;;;;;;9.46;90.79;99727.97;4057717;29;20675;-84
2024/01/31 04:57:55;;;;;;;20.43;14.83;;;;;;;9.46;90.56;99724.53;4075675;29;20622;-85
2024/01/31 04:59:57;;;;;;;23.43;16.30;;;;;;;9.45;90.70;99733.25;4075007;29;20724;-85
2024/01/31 05:02:00;;;;;;;25.07;18.00;;;;;;;9.44;90.85;99727.19;4063297;29;21089;-85
2024/01/31 05:04:04;;;;;;;20.63;15.93;;;;;;;9.44;90.82;99732.41;4072617;29;20761;-85
2024/01/31 05:06:07;;;;;;;22.77;16.90;;;;;;;9.44;91.43;99737.63;4074444;29;20765;-85
2024/01/31 05:08:12;;;;;;;20.37;16.03;;;;;;;9.44;90.92;99732.41;4073160;29;20665;-85
2024/01/31 05:10:15;;;;;;;21.73;17.00;;;;;;;9.44;91.58;99734.13;4056935;29;20761;-85
2024/01/31 05:12:21;;;;;;;21.80;16.63;;;;;;;9.43;91.08;99737.69;4059385;29;20671;-85
2024/01/31 05:14:24;;;;;;;23.20;16.87;;;;;;;9.41;91.06;99740.34;4079200;29;21493;-85
2024/01/31 05:16:27;;;;;;;20.73;16.08;;;;;;;9.41;91.04;99742.94;4087731;28;20641;-85
2024/01/31 05:18:30;;;;;;;20.98;16.35;;;;;;;9.39;91.30;99741.28;4072101;29;20210;-85
2024/01/31 05:20:33;;;;;;;20.80;16.67;;;;;;;9.38;91.08;99739.56;4067919;29;20259;-85
2024/01/31 05:22:36;;;;;;;22.55;15.60;;;;;;;9.38;91.70;99743.06;4056006;29;20669;-85
2024/01/31 05:24:41;;;;;;;21.33;15.90;;;;;;;9.39;91.13;99746.50;4068852;29;20225;-85
2024/01/31 05:26:48;;;;;;;21.73;15.57;;;;;;;9.38;91.39;99743.06;4076946;29;20626;-87
2024/01/31 05:28:51;;;;;;;21.17;17.40;;;;;;;9.38;91.47;99747.38;4072543;29;20657;-84
2024/01/31 05:30:54;;;;;;;23.92;16.15;;;;;;;9.39;91.48;99749.09;4073629;29;20647;-85
2024/01/31 05:32:56;;;;;;;25.13;17.27;;;;;;;9.36;91.68;99744.00;4061080;29;20206;-85
2024/01/31 05:34:59;;;;;;;20.95;15.27;;;;;;;9.34;91.94;99745.81;4070550;29;20652;-81
2024/01/31 05:37:03;;;;;;;23.73;16.37;;;;;;;9.33;92.01;99749.31;4074591;29;20628;-80
2024/01/31 05:39:05;;;;;;;22.50;16.77;;;;;;;9.30;92.43;99752.03;4070910;29;20637;-81
2024/01/31 05:41:12;;;;;;;21.23;17.40;;;;;;;9.31;92.33;99766.75;4070757;29;20708;-81
2024/01/31 05:43:15;;;;;;;34.92;29.17;;;;;;;9.31;92.64;99765.91;4069958;29;20642;-81
2024/01/31 05:45:19;;;;;;;31.87;20.30;;;;;;;9.32;91.98;99762.41;4067962;29;20641;-81
2024/01/31 05:47:22;;;;;;;22.15;17.15;;;;;;;9.30;92.85;99765.06;4073813;29;21227;-80
2024/01/31 05:49:25;;;;;;;24.65;17.25;;;;;;;9.31;92.97;99771.97;4058500;29;20720;-81
2024/01/31 05:51:29;;;;;;;24.70;16.13;;;;;;;9.30;93.00;99764.22;4074098;29;21025;-82
2024/01/31 05:53:32;;;;;;;22.63;17.73;;;;;;;9.27;92.74;99765.16;4073402;29;20983;-81
2024/01/31 05:55:35;;;;;;;21.57;16.43;;;;;;;9.27;93.51;99762.56;4071894;29;21121;-80
2024/01/31 05:57:41;;;;;;;25.97;19.17;;;;;;;9.28;93.43;99766.03;4071816;29;20993;-81
2024/01/31 05:59:44;;;;;;;25.58;17.30;;;;;;;9.29;93.77;99767.72;4069961;29;20760;-81
2024/01/31 06:01:47;;;;;;;24.00;17.90;;;;;;;9.29;93.14;99762.50;4072456;29;20207;-81
2024/01/31 06:03:50;;;;;;;24.67;18.23;;;;;;;9.28;93.91;99761.66;4058972;29;20635;-81
2024/01/31 06:05:54;;;;;;;23.40;17.70;;;;;;;9.28;93.69;99764.28;4069940;29;20225;-81
2024/01/31 06:07:57;;;;;;;24.58;17.23;;;;;;;9.29;93.49;99765.09;4052475;29;20199;-81
2024/01/31 06:09:59;;;;;;;22.15;16.52;;;;;;;9.24;93.20;99760.06;4077616;29;20214;-81
2024/01/31 06:12:03;;;;;;;26.40;18.17;;;;;;;9.25;93.57;99768.75;4061922;29;20295;-81
2024/01/31 06:14:07;;;;;;;26.88;19.52;;;;;;;9.23;93.77;99765.34;4080353;29;20622;-81
2024/01/31 06:16:11;;;;;;;25.50;18.77;;;;;;;9.21;94.11;99762.78;4062732;29;20305;-80
2024/01/31 06:18:15;;;;;;;24.30;18.40;;;;;;;9.18;94.45;99764.66;4067491;29;20219;-81
2024/01/31 06:20:19;;;;;;;23.57;16.87;;;;;;;9.18;93.99;99770.69;4059693;29;20203;-81
2024/01/31 06:22:22;;;;;;;26.43;18.67;;;;;;;9.17;94.95;99774.22;4066929;29;20702;-81
2024/01/31 06:24:25;;;;;;;23.58;18.20;;;;;;;9.19;93.85;99776.78;4093243;28;20632;-81
2024/01/31 06:26:30;;;;;;;27.52;18.45;;;;;;;9.19;94.13;99777.63;4077784;29;20221;-81
2024/01/31 06:28:38;;;;;;;22.15;17.25;;;;;;;9.20;95.29;99773.25;4071196;29;20233;-81
2024/01/31 06:30:44;;;;;;;25.08;17.88;;;;;;;9.20;94.70;99776.72;4054926;29;20603;-80
2024/01/31 06:32:48;;;;;;;22.57;17.20;;;;;;;9.22;94.54;99771.47;4085582;28;20664;-81
2024/01/31 06:34:52;;;;;;;23.83;18.25;;;;;;;9.24;95.10;99772.25;4061857;29;20660;-81
2024/01/31 06:36:54;;;;;;;25.27;18.30;;;;;;;9.21;94.31;99780.16;4090829;28;20225;-81
2024/01/31 06:39:01;;;;;;;25.03;18.17;;;;;;;9.21;95.22;99780.16;4090582;28;21211;-81
2024/01/31 06:41:04;;;;;;;26.00;20.02;;;;;;;9.22;94.45;99779.28;4078128;29;20616;-81
2024/01/31 06:43:07;;;;;;;26.05;19.70;;;;;;;9.20;95.12;99774.13;4076147;29;20194;-81
2024/01/31 06:45:10;;;;;;;26.30;19.38;;;;;;;9.21;95.45;99781.00;4074297;29;20249;-81
2024/01/31 06:47:19;;;;;;;28.23;20.10;;;;;;;9.21;94.68;99772.34;4075361;29;20261;-81
2024/01/31 06:49:25;;;;;;;29.27;20.95;;;;;;;9.21;95.25;99770.59;4063959;29;20658;-81
2024/01/31 06:51:28;;;;;;;36.90;26.10;;;;;;;9.20;95.16;99774.13;4077689;29;20221;-81
2024/01/31 06:53:31;;;;;;;51.07;33.03;;;;;;;9.24;95.45;99780.06;4079361;29;20209;-81
2024/01/31 06:55:35;;;;;;;39.33;26.83;;;;;;;9.25;95.50;99781.75;4062832;29;20621;-81
2024/01/31 06:57:38;;;;;;;41.00;28.07;;;;;;;9.27;95.15;99788.59;4074266;29;20206;-81
2024/01/31 06:59:41;;;;;;;51.33;33.47;;;;;;;9.28;95.65;99792.06;4062798;29;20638;-81
2024/01/31 07:01:44;;;;;;;47.30;30.02;;;;;;;9.29;94.97;99792.00;4077536;29;20732;-81
2024/01/31 07:03:49;;;;;;;38.80;26.10;;;;;;;9.30;95.17;99787.66;4075866;29;20234;-81
2024/01/31 07:05:53;;;;;;;41.60;28.58;;;;;;;9.29;95.28;99792.00;4075588;29;20740;-82
2024/01/31 07:07:56;;;;;;;45.58;28.77;;;;;;;9.31;95.86;99798.00;4076224;29;20669;-81
2024/01/31 07:09:59;;;;;;;41.17;29.57;;;;;;;9.34;95.41;99791.84;4075603;29;20244;-83
2024/01/31 07:12:02;;;;;;;40.40;28.43;;;;;;;9.35;95.41;99796.13;4075121;29;20641;-81
2024/01/31 07:14:07;;;;;;;39.83;25.80;;;;;;;9.37;95.80;99794.31;4075447;29;20675;-82
2024/01/31 07:16:11;;;;;;;44.65;32.58;;;;;;;9.37;95.70;99792.56;4069445;29;20637;-81
2024/01/31 07:18:14;;;;;;;35.70;25.67;;;;;;;9.36;96.10;99793.47;4068805;29;20226;-82
2024/01/31 07:20:19;;;;;;;36.03;25.20;;;;;;;9.37;95.54;99797.78;4059877;29;20690;-82
2024/01/31 07:22:22;;;;;;;51.33;36.30;;;;;;;9.38;96.33;99796.84;4078087;29;20638;-82
2024/01/31 07:24:27;;;;;;;25.42;18.17;;;;;;;9.34;96.93;99784.88;4070413;29;20708;-82
2024/01/31 07:26:32;;;;;;;24.80;17.42;;;;;;;9.32;97.10;99804.06;4055019;29;20221;-82
2024/01/31 07:28:36;;;;;;;24.58;17.23;;;;;;;9.35;97.16;99806.53;4056339;29;20635;-82
2024/01/31 07:30:40;;;;;;;21.33;16.85;;;;;;;9.38;97.52;99800.34;4071750;29;20230;-83
2024/01/31 07:32:43;;;;;;;23.40;16.85;;;;;;;9.41;97.56;99802.81;4070253;29;20672;-86
2024/01/31 07:34:47;;;;;;;22.07;16.77;;;;;;;9.41;98.02;99796.75;4050903;29;20584;-83
2024/01/31 07:36:51;;;;;;;24.30;16.95;;;;;;;9.44;97.50;99797.50;4074210;29;20645;-83
2024/01/31 07:38:54;;;;;;;21.60;17.47;;;;;;;9.48;97.12;99796.47;4064071;29;20851;-84
2024/01/31 07:40:58;;;;;;;25.13;17.97;;;;;;;9.51;97.41;99796.34;4059958;29;20739;-84
2024/01/31 07:43:01;;;;;;;23.90;18.40;;;;;;;9.55;97.65;99802.31;4074613;29;21020;-82
2024/01/31 07:45:05;;;;;;;22.47;17.60;;;;;;;9.57;96.82;99797.91;4062966;29;20623;-84
2024/01/31 07:47:08;;;;;;;22.77;16.77;;;;;;;9.59;97.24;99799.56;4060020;29;20632;-84
2024/01/31 07:49:12;;;;;;;19.53;16.10;;;;;;;9.61;97.27;99789.06;4070372;29;20303;-83
2024/01/31 07:51:16;;;;;;;22.80;17.17;;;;;;;9.64;97.00;99791.56;4061043;29;20631;-83
2024/01/31 07:53:21;;;;;;;20.63;16.60;;;;;;;9.63;96.83;99795.06;4073981;29;20677;-83
2024/01/31 07:55:24;;;;;;;20.90;16.27;;;;;;;9.58;97.00;99790.03;4073467;29;20685;-83
2024/01/31 07:57:27;;;;;;;22.10;14.10;;;;;;;9.56;97.62;99794.44;4075380;29;21037;-83
2024/01/31 07:59:30;;;;;;;24.30;15.82;;;;;;;9.59;98.65;99788.25;4078110;28;20637;-83
2024/01/31 08:01:34;;;;;;;19.50;14.50;;;;;;;9.60;98.72;99795.19;4063381;29;20219;-83
2024/01/31 08:03:39;;;;;;;21.10;15.77;;;;;;;9.58;98.83;99787.41;4078323;29;20658;-82
2024/01/31 08:05:41;;;;;;;23.47;16.30;;;;;;;9.55;99.54;99787.53;4061961;29;20245;-83
2024/01/31 08:07:45;;;;;;;21.77;15.67;;;;;;;9.58;99.17;99797.00;4076484;29;20634;-82
2024/01/31 08:09:50;;;;;;;23.70;16.33;;;;;;;9.64;99.30;99794.16;4087084;28;21312;-83
2024/01/31 08:11:53;;;;;;;20.50;14.60;;;;;;;9.66;99.54;99805.38;4074454;29;20630;-83
2024/01/31 08:13:56;;;;;;;19.63;15.47;;;;;;;9.65;98.87;99804.53;4062365;29;20262;-82
2024/01/31 08:15:59;;;;;;;24.83;16.10;;;;;;;9.71;99.25;99808.63;4070938;29;20626;-83
2024/01/31 08:18:02;;;;;;;22.17;17.55;;;;;;;9.71;98.76;99808.63;4078166;29;20622;-82
2024/01/31 08:20:07;;;;;;;22.03;18.00;;;;;;;9.70;99.17;99804.34;4070246;29;20293;-80
2024/01/31 08:22:11;;;;;;;23.83;18.83;;;;;;;9.75;98.87;99810.25;4062558;29;20653;-80
2024/01/31 08:24:14;;;;;;;24.80;19.90;;;;;;;9.80;98.57;99813.50;4073755;29;21480;-81
2024/01/31 08:26:22;;;;;;;21.80;16.53;;;;;;;9.85;98.51;99818.50;4059636;29;20722;-81
2024/01/31 08:28:25;;;;;;;21.73;16.43;;;;;;;9.89;98.42;99820.09;4071908;29;20721;-82
2024/01/31 08:30:28;;;;;;;20.60;17.20;;;;;;;9.94;98.42;99817.34;4070705;29;21457;-82
2024/01/31 08:32:33;;;;;;;20.98;16.17;;;;;;;9.98;98.14;99822.38;4072275;29;20626;-82
2024/01/31 08:34:36;;;;;;;22.23;17.85;;;;;;;10.01;98.48;99819.66;4075461;29;20317;-82
2024/01/31 08:36:39;;;;;;;20.23;17.00;;;;;;;10.05;98.43;99816.00;4085309;28;20217;-82
2024/01/31 08:38:43;;;;;;;24.30;18.43;;;;;;;10.08;98.50;99810.66;4052284;29;20726;-83
2024/01/31 08:40:46;;;;;;;19.20;16.43;;;;;;;10.09;98.38;99814.97;4072684;29;20729;-83
2024/01/31 08:42:54;;;;;;;20.17;16.23;;;;;;;10.14;98.30;99815.66;4060020;29;20638;-83
2024/01/31 08:44:57;;;;;;;21.60;17.10;;;;;;;10.19;98.10;99816.31;4071239;29;20742;-83
2024/01/31 08:47:01;;;;;;;21.63;15.83;;;;;;;10.22;97.20;99810.97;4071873;29;20654;-82
2024/01/31 08:49:21;;;;;;;20.90;17.20;;;;;;;10.23;96.53;99809.22;4053706;29;20639;-83
2024/01/31 08:51:24;;;;;;;21.93;17.87;;;;;;;10.16;96.56;99805.16;4071212;29;20695;-83
2024/01/31 08:53:27;;;;;;;24.57;17.80;;;;;;;10.10;96.76;99808.88;4060970;29;20706;-83
2024/01/31 08:55:29;;;;;;;21.47;18.70;;;;;;;10.13;97.11;99803.53;4072090;29;20647;-83
2024/01/31 08:57:33;;;;;;;21.70;17.93;;;;;;;10.19;97.28;99811.09;4061851;29;20638;-83
2024/01/31 08:59:37;;;;;;;28.07;18.50;;;;;;;10.28;97.11;99820.31;4058765;29;21018;-83
2024/01/31 09:01:43;;;;;;;24.47;18.13;;;;;;;10.32;96.71;99817.53;4059639;29;20742;-85
2024/01/31 09:03:47;;;;;;;20.87;17.10;;;;;;;10.34;97.56;99813.97;4061884;29;20638;-89
2024/01/31 09:05:50;;;;;;;20.80;16.90;;;;;;;10.40;96.70;99815.47;4084064;28;20663;-89
2024/01/31 09:07:52;;;;;;;20.80;16.87;;;;;;;10.46;96.86;99813.47;4072696;29;20641;-90
2024/01/31 09:09:56;;;;;;;23.67;18.37;;;;;;;10.49;97.17;99802.06;4077531;29;20682;-89
2024/01/31 09:12:00;;;;;;;22.43;18.10;;;;;;;10.54;97.00;99805.31;4060331;29;20627;-89
2024/01/31 09:14:03;;;;;;;21.50;17.10;;;;;;;10.60;96.63;99812.88;4061446;29;20627;-90
2024/01/31 09:16:08;;;;;;;20.77;16.40;;;;;;;10.62;96.59;99818.91;4076965;29;20665;-90
2024/01/31 09:18:11;;;;;;;27.90;19.73;;;;;;;10.62;96.60;99814.53;4078665;29;21299;-90
2024/01/31 09:20:15;;;;;;;21.43;17.73;;;;;;;10.64;95.88;99817.06;4075367;29;21156;-88
2024/01/31 09:22:18;;;;;;;19.80;16.30;;;;;;;10.67;95.56;99811.75;4058459;29;21268;-89
2024/01/31 09:24:21;;;;;;;23.90;17.47;;;;;;;10.72;95.89;99812.38;4074775;29;20642;-89
2024/01/31 09:26:25;;;;;;;21.87;17.67;;;;;;;10.76;95.44;99808.75;4071711;29;20639;-88
2024/01/31 09:28:28;;;;;;;20.03;16.90;;;;;;;10.81;95.86;99808.50;4078244;29;21214;-90
2024/01/31 09:30:31;;;;;;;20.10;16.07;;;;;;;10.85;96.09;99812.69;4070747;29;20677;-88
2024/01/31 09:32:35;;;;;;;21.73;17.93;;;;;;;10.88;95.23;99815.16;4059532;29;21236;-89
2024/01/31 09:34:38;;;;;;;24.20;17.40;;;;;;;10.88;96.15;99822.13;4071413;29;20679;-89
2024/01/31 09:36:41;;;;;;;20.93;17.57;;;;;;;10.85;95.51;99822.25;4052637;29;20636;-89
2024/01/31 09:38:47;;;;;;;20.70;17.07;;;;;;;10.86;95.79;99823.97;4089190;28;20636;-90